大阪空港の過去48時間の天気

大阪空港 (Osaka/Intl)

現在時刻: 3/22 10:01 JST (3/22 01:01 UTC) 以下の時間は現地時間です。

過去48時間のMETAR気象情報
時間 風向 風速(m/s) 視程 気温(℃) 湿度(%) 気圧(hPa) 天気現象
22 09:00 5 10km以上 14 59 1009
22 08:00 北北西 8 10km以上 13 67 1009
22 07:06 北北西 8 10km以上 13 72 1008
22 07:00 北北西 7 10km以上 13 77 1008
22 06:00 北西 8 10km以上 14 72 1007
22 05:00 5 10km以上 15 77 1005
21 20:17 西南西 3 8000m 19 94 1005
21 20:00 西 4 6000m 19 94 1005 弱いしゅう雨 もや
21 19:00 西 2 10km以上 19 88 1004
21 18:47 西 2 10km以上 19 88 1004
21 18:00 西 3 10km以上 19 88 1004
21 17:00 西 4 10km以上 19 83 1004
21 16:00 西南西 3 10km以上 20 73 1004
21 15:00 西南西 3 10km以上 20 73 1004
21 14:00 西南西 2 10km以上 20 73 1004
21 13:00 南西 3 10km以上 19 73 1006
21 12:00 南西 3 10km以上 18 73 1007
21 11:00 2 10km以上 17 83 1007
21 10:00 南東 3 10km以上 15 88 1008
21 09:00 不定 1 6000m 14 94 1009 弱いしゅう雨 もや
21 08:00 不定 1 8000m 13 88 1009 弱いしゅう雨
21 07:00 2 6000m 13 82 1009 弱いしゅう雨 もや
21 06:00 不定 2 10km以上 13 77 1010 周辺でしゅう雨
21 05:00 東北東 2 10km以上 13 77 1010 弱いしゅう雨
20 20:00 2 10km以上 15 72 1016
20 19:00 南南西 2 10km以上 15 67 1016
20 18:00 南西 3 10km以上 16 55 1017
20 17:00 西南西 4 10km以上 17 48 1017
20 16:00 西南西 5 10km以上 18 39 1016
20 15:00 西南西 5 10km以上 19 32 1016
20 14:00 南南西 3 10km以上 19 35 1016
20 13:00 南南西 2 10km以上 18 42 1016
20 12:00 東南東 2 10km以上 17 42 1017
20 11:00 2 10km以上 15 59 1018
RJOO 220000Z 35010KT 320V030 9999 FEW030 SCT060 BKN/// 14/06 Q1009
RJOO 212300Z 33015KT 9999 FEW020 SCT060 BKN/// 13/07 Q1009
RJOO 212206Z 33015G26KT 9999 FEW020 BKN060 13/08 Q1008 RMK 1CU020 6SC060 A2979
RJOO 212200Z 34014KT 9999 FEW020 BKN060 13/09 Q1008
RJOO 212100Z 32015KT 9999 FEW015 SCT025 BKN040 14/09 Q1007 RMK 1CU015 3CU025 5CU040 A2974
RJOO 212000Z 36010KT 9999 FEW008 BKN020 BKN050 15/11 Q1005
RJOO 211117Z 24006KT 210V270 8000 FEW004 SCT008 BKN020 19/18 Q1005 RMK 1ST004 4ST008 5CU020 A2968
RJOO 211100Z 26007KT 230V290 6000 -SHRA BR FEW004 SCT006 BKN008 19/18 Q1005 RMK 1ST004 4ST006 5ST008 A2969
RJOO 211000Z 27004KT 220V320 9999 FEW004 BKN009 BKN015 19/17 Q1004 RMK 1ST004 5ST009 6CU015 A2967
RJOO 210947Z 27004KT 200V330 9999 FEW004 BKN009 BKN015 19/17 Q1004 RMK 1ST004 5ST009 6CU015 A2966
RJOO 210900Z 26005KT 220V310 9999 FEW006 SCT010 BKN020 19/17 Q1004 RMK 1ST006 3CU010 5CU020 A2967
RJOO 210800Z 26007KT 220V310 9999 FEW010 SCT020 BKN025 19/16 Q1004 RMK 1CU010 3CU020 5CU025 A2966
RJOO 210700Z 24005KT 210V280 9999 FEW015 BKN025 BKN050 20/15 Q1004 RMK 1CU015 5CU025 6SC050 A2966
RJOO 210600Z 25006KT 210V290 9999 FEW015 BKN030 20/15 Q1004 RMK 1CU015 6CU030 A2966
RJOO 210500Z 25003KT 190V330 9999 FEW015 BKN030 20/15 Q1004 RMK 1CU015 6CU030 A2967
RJOO 210400Z 22006KT 170V250 9999 FEW015 BKN030 19/14 Q1006 RMK 1CU015 6CU030 A2971
RJOO 210300Z 22006KT 180V260 9999 FEW020 SCT030 BKN070 18/13 Q1007 RMK 1CU020 4CU030 6AC070 A2974
RJOO 210200Z 10004KT 060V170 9999 FEW015 SCT035 BKN070 17/14 Q1007 RMK 1CU015 3CU035 5AC070 A2976
RJOO 210100Z 14005KT 100V190 9999 FEW008 SCT035 BKN050 15/13 Q1008 RMK 1ST008 4CU035 6SC050 A2979
RJOO 210000Z VRB02KT 6000 -SHRA BR FEW006 SCT025 BKN045 14/13 Q1009 RMK 1ST006 4CU025 6SC045 A2982
RJOO 202300Z VRB02KT 8000 -SHRA FEW006 BKN040 BKN050 13/11 Q1009 RMK 1ST006 5CU040 6SC050 A2981
RJOO 202200Z 18004KT 070V230 6000 -SHRA BR FEW006 SCT035 BKN050 13/10 Q1009 RMK 1ST006 3CU035 6SC050 A2981
RJOO 202100Z VRB03KT 9999 VCSH FEW010 BKN035 13/09 Q1010 RMK 1ST010 6CU035 A2982
RJOO 202000Z 07003KT 030V110 9999 -SHRA FEW010 BKN040 13/09 Q1010 RMK 1ST010 6CU040 A2983
RJOO 201100Z 17003KT 090V210 9999 FEW030 SCT180 BKN/// 15/10 Q1016 RMK 1CU030 3AC180 A3003
RJOO 201000Z 20004KT 140V240 9999 FEW030 SCT180 BKN/// 15/09 Q1016 RMK 1CU030 3AC180 A3003
RJOO 200900Z 22006KT 190V270 9999 FEW030 BKN/// 16/07 Q1017 RMK 1CU030 A3004
RJOO 200800Z 25007KT 210V300 9999 FEW030 BKN/// 17/06 Q1017 RMK 1CU030 A3004
RJOO 200700Z 24009KT 210V270 CAVOK 18/04 Q1016 RMK A3000
RJOO 200600Z 24009G20KT 190V270 9999 FEW030 BKN/// 19/02 Q1016 RMK 1CU030 A3001
RJOO 200500Z 20005KT 110V290 9999 FEW030 BKN/// 19/03 Q1016
RJOO 200400Z 21003KT 140V280 CAVOK 18/05 Q1016 RMK A3003
RJOO 200300Z 11004KT 030V160 CAVOK 17/04 Q1017 RMK A3005
RJOO 200200Z 10003KT 020V180 CAVOK 15/07 Q1018 RMK A3008